Terminal Aerodrome Forecast
Issued by NWS Caribou, ME

Home | Current Version | Previous Version | Text Only | Print | Product List | Glossary On
Versions: 1 2 3 4 5 6 7 8 9 10 11 12 13 14 15 16 17 18 19 20 21 22 23
248
FTUS41 KCAR 171727 AAB
TAFCAR
TAF AMD
KCAR 171727Z 1717/1818 24010G17KT P6SM SCT050 BKN080
     FM172200 22010KT P6SM BKN045
     FM180200 20008KT P6SM VCSH BKN035
     FM180600 22009KT P6SM VCSH BKN030
     FM181000 25007KT P6SM SCT035
     FM181400 29010G18KT P6SM FEW045=

USA.gov is the U.S. government's official web portal to all federal, state and local government web resources and services.